Squeak Carpenter — WDA2979 — position and weather

sailwx.info

Track history (hours):
 
Tides and Currents Weather Stations Pressure Air Temp Water Temp Dewpoint Dewpoint Depression Visibility Wind Speed Wind Dir Waves Ship Positions

Squeak Carpenter

Owner: Blessey Enterprises, Inc., HARAHAN, LA. More information available from US FCC via Universal Licensing System and Coast Guard Vessel Documentation Center.

Last reported at 2018-Feb-18 02:28 UTC. Time now 2018-Feb-18 06:55 UTC.
Position N 29°30' W 094°34'.

Length 15 m.

Type: Towing. MMSI: 366793340.

Date/timePositionNaut miles runAvg speedWind from/ knotsBaromVisibWave heightAir tempDewpointWater temp
2018-Feb-18 02:28N 29°30' W 094°34'0 0.0
2018-Feb-18 01:53N 29°30' W 094°34'0 0.0
2018-Feb-18 01:25N 29°30' W 094°34'0 0.0
2018-Feb-18 00:59N 29°30' W 094°34'0 0.0
2018-Feb-18 00:30N 29°30' W 094°34'0 0.0
2018-Feb-17 23:57N 29°30' W 094°34'3 2.8
2018-Feb-17 22:53N 29°31' W 094°30'2 4.9
2018-Feb-17 22:30N 29°32' W 094°29'2 4.3
2018-Feb-17 21:59N 29°34' W 094°27'2 3.4
2018-Feb-17 21:26N 29°35' W 094°25'2 4.1
2018-Feb-17 20:53N 29°36' W 094°23'2 5.7
2018-Feb-17 20:29N 29°37' W 094°21'2 4.3
2018-Feb-17 20:00N 29°38' W 094°19'3 5.5
2018-Feb-17 19:30N 29°39' W 094°16'3 5.3
2018-Feb-17 19:00N 29°40' W 094°13'3 5.0
2018-Feb-17 18:30N 29°41' W 094°10'2 4.4
2018-Feb-17 18:00N 29°42' W 094°08'1 1.5
2018-Feb-17 17:30N 29°43' W 094°07'3 5.1
2018-Feb-17 17:00N 29°44' W 094°05'3 5.1
2018-Feb-17 16:31N 29°46' W 094°03'2 3.4
2018-Feb-17 16:00N 29°47' W 094°01'2 4.1
2018-Feb-17 15:30N 29°49' W 093°60'1 1.6
2018-Feb-17 14:59N 29°49' W 093°59'0 0.0
2018-Feb-17 14:30N 29°49' W 093°59'0 0.0
2018-Feb-17 14:00N 29°49' W 093°59'0 0.0
2018-Feb-17 13:30N 29°49' W 093°59'0 0.0
2018-Feb-17 13:00N 29°49' W 093°59'0 0.0
2018-Feb-17 12:31N 29°49' W 093°59'0 0.0
2018-Feb-17 12:00N 29°49' W 093°59'0 0.0
2018-Feb-17 11:30N 29°49' W 093°59'0 0.0
2018-Feb-17 11:00N 29°49' W 093°59'0 0.0
2018-Feb-17 10:30N 29°49' W 093°59'0 0.0
2018-Feb-17 10:00N 29°49' W 093°59'0 0.0
2018-Feb-17 09:30N 29°49' W 093°59'0 0.0
2018-Feb-17 09:00N 29°49' W 093°59'0 0.1
2018-Feb-17 08:30N 29°49' W 093°59'0 0.0
2018-Feb-17 08:00N 29°49' W 093°59'0 0.0
2018-Feb-17 07:30N 29°49' W 093°59'0 0.0
2018-Feb-17 07:00N 29°49' W 093°59'0 0.0
2018-Feb-17 06:30N 29°49' W 093°59'0 0.0
2018-Feb-17 06:00N 29°49' W 093°59'0 0.0
2018-Feb-17 05:30N 29°49' W 093°59'0 0.0
2018-Feb-17 05:00N 29°49' W 093°59'0 0.0
2018-Feb-17 04:30N 29°49' W 093°59'0 0.0
2018-Feb-17 04:00N 29°49' W 093°59'1 2.4
2018-Feb-17 03:31N 29°50' W 093°58'2 3.6
2018-Feb-17 03:00N 29°51' W 093°57'2 3.3
2018-Feb-17 02:30N 29°53' W 093°56'2 3.2
2018-Feb-17 02:00N 29°54' W 093°54'2 3.3
2018-Feb-17 01:30N 29°55' W 093°53'1 2.7
2018-Feb-17 01:00N 29°56' W 093°52'3 5.8
2018-Feb-17 00:30N 29°58' W 093°50'3 6.3
2018-Feb-17 00:00N 29°60' W 093°47'3 6.1
2018-Feb-16 23:30N 30°02' W 093°44'3 5.3
2018-Feb-16 23:00N 30°03' W 093°42'2 4.8
2018-Feb-16 22:30N 30°04' W 093°39'3 5.4
2018-Feb-16 22:00N 30°04' W 093°36'2 5.0
2018-Feb-16 21:30N 30°04' W 093°33'2 4.8
2018-Feb-16 21:00N 30°04' W 093°31'2 4.9
2018-Feb-16 20:30N 30°04' W 093°28'2 4.6
2018-Feb-16 20:00N 30°04' W 093°25'2 4.7
2018-Feb-16 19:30N 30°04' W 093°22'2 3.9
2018-Feb-16 19:00N 30°04' W 093°20'2 4.0
2018-Feb-16 18:30N 30°06' W 093°19'2 3.9
2018-Feb-16 18:00N 30°05' W 093°17'2 3.2
2018-Feb-16 17:30N 30°04' W 093°16'1 1.7
2018-Feb-16 17:00N 30°03' W 093°16'2 4.0
2018-Feb-16 16:30N 30°01' W 093°14'3 5.2
2018-Feb-16 16:00N 29°59' W 093°13'2 4.1
2018-Feb-16 15:30N 29°58' W 093°11'2 3.5
2018-Feb-16 15:00N 29°56' W 093°10'2 3.2
2018-Feb-16 14:30N 29°56' W 093°08'20 1.8
2018-Feb-16 03:17N 29°58' W 092°45'22 3.0
2018-Feb-15 20:01N 29°51' W 092°22'0 3.9
2018-Feb-15 20:00N 29°51' W 092°22'2 4.5
2018-Feb-15 19:30N 29°50' W 092°19'2 4.2
2018-Feb-15 19:00N 29°49' W 092°17'2 4.4
2018-Feb-15 18:30N 29°48' W 092°15'2 4.5
2018-Feb-15 17:59N 29°47' W 092°12'2 4.3
2018-Feb-15 17:30N 29°47' W 092°10'2 4.7
2018-Feb-15 17:00N 29°47' W 092°08'4 4.8
2018-Feb-15 16:13N 29°49' W 092°04'0 0.0
2018-Feb-15 14:50N 29°49' W 092°04'0 0.1
2018-Feb-15 14:26N 29°49' W 092°04'0 0.0
2018-Feb-15 10:04N 29°49' W 092°04'0 0.0
2018-Feb-15 09:39N 29°49' W 092°04'0 0.0
2018-Feb-15 08:37N 29°49' W 092°04'  
2018-Feb-10 01:10N 29°50' W 091°60'1 6.2
2018-Feb-10 00:58N 29°49' W 092°01'3 6.4
2018-Feb-10 00:29N 29°48' W 092°04'3 6.5
2018-Feb-09 23:59N 29°47' W 092°08'3 5.8
2018-Feb-09 23:29N 29°47' W 092°11'2 3.7
2018-Feb-09 22:59N 29°47' W 092°13'1 3.0
2018-Feb-09 22:45N 29°48' W 092°14'86 3.7
2018-Feb-08 23:31N 29°57' W 093°52'4 8.3
2018-Feb-08 23:00N 29°53' W 093°55'8 3.4
2018-Feb-08 20:30N 29°47' W 094°01'  
Track history (hours):
 
Tides and Currents Weather Stations Pressure Air Temp Water Temp Dewpoint Dewpoint Depression Visibility Wind Speed Wind Dir Waves Ship Positions

Squeak Carpenter

Owner: Blessey Enterprises, Inc., HARAHAN, LA. More information available from US FCC via Universal Licensing System and Coast Guard Vessel Documentation Center.

Last reported at 2018-Feb-18 02:28 UTC. Time now 2018-Feb-18 06:55 UTC.
Position N 29°30' W 094°34'.

Length 15 m.

Type: Towing. MMSI: 366793340.

Date/timePositionNaut miles runAvg speedWind from/ knotsBaromVisibWave heightAir tempDewpointWater temp
2018-Feb-18 02:28N 29°30' W 094°34'0 0.0
2018-Feb-18 01:53N 29°30' W 094°34'0 0.0
2018-Feb-18 01:25N 29°30' W 094°34'0 0.0
2018-Feb-18 00:59N 29°30' W 094°34'0 0.0
2018-Feb-18 00:30N 29°30' W 094°34'0 0.0
2018-Feb-17 23:57N 29°30' W 094°34'3 2.8
2018-Feb-17 22:53N 29°31' W 094°30'2 4.9
2018-Feb-17 22:30N 29°32' W 094°29'2 4.3
2018-Feb-17 21:59N 29°34' W 094°27'2 3.4
2018-Feb-17 21:26N 29°35' W 094°25'2 4.1
2018-Feb-17 20:53N 29°36' W 094°23'2 5.7
2018-Feb-17 20:29N 29°37' W 094°21'2 4.3
2018-Feb-17 20:00N 29°38' W 094°19'3 5.5
2018-Feb-17 19:30N 29°39' W 094°16'3 5.3
2018-Feb-17 19:00N 29°40' W 094°13'3 5.0
2018-Feb-17 18:30N 29°41' W 094°10'2 4.4
2018-Feb-17 18:00N 29°42' W 094°08'1 1.5
2018-Feb-17 17:30N 29°43' W 094°07'3 5.1
2018-Feb-17 17:00N 29°44' W 094°05'3 5.1
2018-Feb-17 16:31N 29°46' W 094°03'2 3.4
2018-Feb-17 16:00N 29°47' W 094°01'2 4.1
2018-Feb-17 15:30N 29°49' W 093°60'1 1.6
2018-Feb-17 14:59N 29°49' W 093°59'0 0.0
2018-Feb-17 14:30N 29°49' W 093°59'0 0.0
2018-Feb-17 14:00N 29°49' W 093°59'0 0.0
2018-Feb-17 13:30N 29°49' W 093°59'0 0.0
2018-Feb-17 13:00N 29°49' W 093°59'0 0.0
2018-Feb-17 12:31N 29°49' W 093°59'0 0.0
2018-Feb-17 12:00N 29°49' W 093°59'0 0.0
2018-Feb-17 11:30N 29°49' W 093°59'0 0.0
2018-Feb-17 11:00N 29°49' W 093°59'0 0.0
2018-Feb-17 10:30N 29°49' W 093°59'0 0.0
2018-Feb-17 10:00N 29°49' W 093°59'0 0.0
2018-Feb-17 09:30N 29°49' W 093°59'0 0.0
2018-Feb-17 09:00N 29°49' W 093°59'0 0.1
2018-Feb-17 08:30N 29°49' W 093°59'0 0.0
2018-Feb-17 08:00N 29°49' W 093°59'0 0.0
2018-Feb-17 07:30N 29°49' W 093°59'0 0.0
2018-Feb-17 07:00N 29°49' W 093°59'0 0.0
2018-Feb-17 06:30N 29°49' W 093°59'0 0.0
2018-Feb-17 06:00N 29°49' W 093°59'0 0.0
2018-Feb-17 05:30N 29°49' W 093°59'0 0.0
2018-Feb-17 05:00N 29°49' W 093°59'0 0.0
2018-Feb-17 04:30N 29°49' W 093°59'0 0.0
2018-Feb-17 04:00N 29°49' W 093°59'1 2.4
2018-Feb-17 03:31N 29°50' W 093°58'2 3.6
2018-Feb-17 03:00N 29°51' W 093°57'2 3.3
2018-Feb-17 02:30N 29°53' W 093°56'2 3.2
2018-Feb-17 02:00N 29°54' W 093°54'2 3.3
2018-Feb-17 01:30N 29°55' W 093°53'1 2.7
2018-Feb-17 01:00N 29°56' W 093°52'3 5.8
2018-Feb-17 00:30N 29°58' W 093°50'3 6.3
2018-Feb-17 00:00N 29°60' W 093°47'3 6.1
2018-Feb-16 23:30N 30°02' W 093°44'3 5.3
2018-Feb-16 23:00N 30°03' W 093°42'2 4.8
2018-Feb-16 22:30N 30°04' W 093°39'3 5.4
2018-Feb-16 22:00N 30°04' W 093°36'2 5.0
2018-Feb-16 21:30N 30°04' W 093°33'2 4.8
2018-Feb-16 21:00N 30°04' W 093°31'2 4.9
2018-Feb-16 20:30N 30°04' W 093°28'2 4.6
2018-Feb-16 20:00N 30°04' W 093°25'2 4.7
2018-Feb-16 19:30N 30°04' W 093°22'2 3.9
2018-Feb-16 19:00N 30°04' W 093°20'2 4.0
2018-Feb-16 18:30N 30°06' W 093°19'2 3.9
2018-Feb-16 18:00N 30°05' W 093°17'2 3.2
2018-Feb-16 17:30N 30°04' W 093°16'1 1.7
2018-Feb-16 17:00N 30°03' W 093°16'2 4.0
2018-Feb-16 16:30N 30°01' W 093°14'3 5.2
2018-Feb-16 16:00N 29°59' W 093°13'2 4.1
2018-Feb-16 15:30N 29°58' W 093°11'2 3.5
2018-Feb-16 15:00N 29°56' W 093°10'2 3.2
2018-Feb-16 14:30N 29°56' W 093°08'20 1.8
2018-Feb-16 03:17N 29°58' W 092°45'22 3.0
2018-Feb-15 20:01N 29°51' W 092°22'0 3.9
2018-Feb-15 20:00N 29°51' W 092°22'2 4.5
2018-Feb-15 19:30N 29°50' W 092°19'2 4.2
2018-Feb-15 19:00N 29°49' W 092°17'2 4.4
2018-Feb-15 18:30N 29°48' W 092°15'2 4.5
2018-Feb-15 17:59N 29°47' W 092°12'2 4.3
2018-Feb-15 17:30N 29°47' W 092°10'2 4.7
2018-Feb-15 17:00N 29°47' W 092°08'4 4.8
2018-Feb-15 16:13N 29°49' W 092°04'0 0.0
2018-Feb-15 14:50N 29°49' W 092°04'0 0.1
2018-Feb-15 14:26N 29°49' W 092°04'0 0.0
2018-Feb-15 10:04N 29°49' W 092°04'0 0.0
2018-Feb-15 09:39N 29°49' W 092°04'0 0.0
2018-Feb-15 08:37N 29°49' W 092°04'  
2018-Feb-10 01:10N 29°50' W 091°60'1 6.2
2018-Feb-10 00:58N 29°49' W 092°01'3 6.4
2018-Feb-10 00:29N 29°48' W 092°04'3 6.5
2018-Feb-09 23:59N 29°47' W 092°08'3 5.8
2018-Feb-09 23:29N 29°47' W 092°11'2 3.7
2018-Feb-09 22:59N 29°47' W 092°13'1 3.0
2018-Feb-09 22:45N 29°48' W 092°14'86 3.7
2018-Feb-08 23:31N 29°57' W 093°52'4 8.3
2018-Feb-08 23:00N 29°53' W 093°55'8 3.4
2018-Feb-08 20:30N 29°47' W 094°01'  

Dump ship's entire track history